sensor_id;sensor_type;location;lat;lon;timestamp;P1;durP1;ratioP1;P2;durP2;ratioP2
12363;SDS011;6246;50.826;4.712;2022-12-07T00:00:43;3.20;;;2.90;;
12363;SDS011;6246;50.826;4.712;2022-12-07T00:03:09;3.30;;;2.83;;
12363;SDS011;6246;50.826;4.712;2022-12-07T00:05:35;3.23;;;2.93;;
12363;SDS011;6246;50.826;4.712;2022-12-07T00:08:01;2.70;;;2.50;;
12363;SDS011;6246;50.826;4.712;2022-12-07T00:10:27;4.23;;;2.67;;
12363;SDS011;6246;50.826;4.712;2022-12-07T00:12:53;3.03;;;2.73;;
12363;SDS011;6246;50.826;4.712;2022-12-07T00:15:19;3.33;;;2.90;;
12363;SDS011;6246;50.826;4.712;2022-12-07T00:17:45;3.10;;;2.80;;
12363;SDS011;6246;50.826;4.712;2022-12-07T00:20:11;2.70;;;2.50;;
12363;SDS011;6246;50.826;4.712;2022-12-07T00:22:37;2.90;;;2.70;;
12363;SDS011;6246;50.826;4.712;2022-12-07T00:25:03;2.90;;;2.70;;
12363;SDS011;6246;50.826;4.712;2022-12-07T00:27:29;2.70;;;2.50;;
12363;SDS011;6246;50.826;4.712;2022-12-07T00:29:55;2.77;;;2.40;;
12363;SDS011;6246;50.826;4.712;2022-12-07T00:32:21;2.60;;;2.40;;
12363;SDS011;6246;50.826;4.712;2022-12-07T00:34:47;3.40;;;2.87;;
12363;SDS011;6246;50.826;4.712;2022-12-07T00:37:13;2.83;;;2.63;;
12363;SDS011;6246;50.826;4.712;2022-12-07T00:39:39;2.60;;;2.40;;
12363;SDS011;6246;50.826;4.712;2022-12-07T00:42:05;3.63;;;2.83;;
12363;SDS011;6246;50.826;4.712;2022-12-07T00:44:31;2.50;;;2.30;;
12363;SDS011;6246;50.826;4.712;2022-12-07T00:46:57;3.33;;;2.60;;
12363;SDS011;6246;50.826;4.712;2022-12-07T00:49:23;2.70;;;2.50;;
12363;SDS011;6246;50.826;4.712;2022-12-07T00:51:49;2.87;;;2.63;;
12363;SDS011;6246;50.826;4.712;2022-12-07T00:54:15;3.07;;;2.77;;
12363;SDS011;6246;50.826;4.712;2022-12-07T00:56:41;3.00;;;2.67;;
12363;SDS011;6246;50.826;4.712;2022-12-07T00:59:10;3.37;;;3.07;;
12363;SDS011;6246;50.826;4.712;2022-12-07T01:01:36;3.07;;;2.70;;
12363;SDS011;6246;50.826;4.712;2022-12-07T01:04:02;2.67;;;2.47;;
12363;SDS011;6246;50.826;4.712;2022-12-07T01:06:29;2.80;;;2.60;;
12363;SDS011;6246;50.826;4.712;2022-12-07T01:08:55;2.60;;;2.40;;
12363;SDS011;6246;50.826;4.712;2022-12-07T01:11:23;2.63;;;2.40;;
12363;SDS011;6246;50.826;4.712;2022-12-07T01:13:50;2.70;;;2.50;;
12363;SDS011;6246;50.826;4.712;2022-12-07T01:16:16;2.63;;;2.43;;
12363;SDS011;6246;50.826;4.712;2022-12-07T01:18:43;2.67;;;2.47;;
12363;SDS011;6246;50.826;4.712;2022-12-07T01:21:12;2.93;;;2.73;;
12363;SDS011;6246;50.826;4.712;2022-12-07T01:23:38;5.90;;;3.10;;
12363;SDS011;6246;50.826;4.712;2022-12-07T01:26:05;2.67;;;2.47;;
12363;SDS011;6246;50.826;4.712;2022-12-07T01:28:31;3.17;;;2.87;;
12363;SDS011;6246;50.826;4.712;2022-12-07T01:31:02;3.20;;;2.90;;
12363;SDS011;6246;50.826;4.712;2022-12-07T01:33:29;2.83;;;2.60;;
12363;SDS011;6246;50.826;4.712;2022-12-07T01:36:00;2.60;;;2.40;;
12363;SDS011;6246;50.826;4.712;2022-12-07T01:38:26;3.20;;;2.90;;
12363;SDS011;6246;50.826;4.712;2022-12-07T01:40:55;2.80;;;2.60;;
12363;SDS011;6246;50.826;4.712;2022-12-07T01:43:21;2.73;;;2.53;;
12363;SDS011;6246;50.826;4.712;2022-12-07T01:45:49;3.43;;;2.30;;
12363;SDS011;6246;50.826;4.712;2022-12-07T01:48:15;2.60;;;2.40;;
12363;SDS011;6246;50.826;4.712;2022-12-07T01:50:43;3.10;;;2.53;;
12363;SDS011;6246;50.826;4.712;2022-12-07T01:53:10;3.00;;;2.70;;
12363;SDS011;6246;50.826;4.712;2022-12-07T01:55:37;3.07;;;2.73;;
12363;SDS011;6246;50.826;4.712;2022-12-07T01:58:04;3.23;;;2.93;;
12363;SDS011;6246;50.826;4.712;2022-12-07T02:00:30;2.80;;;2.60;;
12363;SDS011;6246;50.826;4.712;2022-12-07T02:05:35;2.50;;;2.30;;
12363;SDS011;6246;50.826;4.712;2022-12-07T02:08:02;2.73;;;2.53;;
12363;SDS011;6246;50.826;4.712;2022-12-07T02:10:29;3.00;;;2.80;;
12363;SDS011;6246;50.826;4.712;2022-12-07T02:12:57;2.60;;;2.40;;
12363;SDS011;6246;50.826;4.712;2022-12-07T02:15:26;2.87;;;2.63;;
12363;SDS011;6246;50.826;4.712;2022-12-07T02:17:58;2.77;;;2.43;;
12363;SDS011;6246;50.826;4.712;2022-12-07T02:30:56;2.80;;;2.50;;
12363;SDS011;6246;50.826;4.712;2022-12-07T02:33:31;2.67;;;2.47;;
12363;SDS011;6246;50.826;4.712;2022-12-07T02:41:31;3.07;;;2.77;;
12363;SDS011;6246;50.826;4.712;2022-12-07T02:44:00;3.17;;;2.87;;
12363;SDS011;6246;50.826;4.712;2022-12-07T02:46:28;2.80;;;2.60;;
12363;SDS011;6246;50.826;4.712;2022-12-07T02:48:55;3.00;;;2.80;;
12363;SDS011;6246;50.826;4.712;2022-12-07T02:51:24;3.10;;;2.80;;
12363;SDS011;6246;50.826;4.712;2022-12-07T02:53:50;2.97;;;2.73;;
12363;SDS011;6246;50.826;4.712;2022-12-07T02:59:31;2.80;;;2.60;;
12363;SDS011;6246;50.826;4.712;2022-12-07T03:01:52;3.13;;;2.83;;
12363;SDS011;6246;50.826;4.712;2022-12-07T03:07:05;3.33;;;3.03;;
12363;SDS011;6246;50.826;4.712;2022-12-07T03:09:35;3.00;;;2.70;;
12363;SDS011;6246;50.826;4.712;2022-12-07T03:14:34;3.17;;;2.90;;
12363;SDS011;6246;50.826;4.712;2022-12-07T03:17:03;3.50;;;2.90;;
12363;SDS011;6246;50.826;4.712;2022-12-07T03:19:31;3.77;;;2.80;;
12363;SDS011;6246;50.826;4.712;2022-12-07T03:22:03;3.30;;;3.00;;
12363;SDS011;6246;50.826;4.712;2022-12-07T03:24:34;3.27;;;2.97;;
12363;SDS011;6246;50.826;4.712;2022-12-07T03:27:03;3.70;;;2.70;;
12363;SDS011;6246;50.826;4.712;2022-12-07T03:29:40;3.20;;;2.90;;
12363;SDS011;6246;50.826;4.712;2022-12-07T03:32:24;3.07;;;2.77;;
12363;SDS011;6246;50.826;4.712;2022-12-07T03:34:56;3.43;;;2.87;;
12363;SDS011;6246;50.826;4.712;2022-12-07T03:37:34;2.87;;;2.67;;
12363;SDS011;6246;50.826;4.712;2022-12-07T03:40:04;3.20;;;2.90;;
12363;SDS011;6246;50.826;4.712;2022-12-07T03:42:32;2.93;;;2.73;;
12363;SDS011;6246;50.826;4.712;2022-12-07T03:45:00;3.17;;;2.90;;
12363;SDS011;6246;50.826;4.712;2022-12-07T03:47:29;2.77;;;2.57;;
12363;SDS011;6246;50.826;4.712;2022-12-07T03:50:06;2.93;;;2.73;;
12363;SDS011;6246;50.826;4.712;2022-12-07T03:52:39;3.30;;;3.00;;
12363;SDS011;6246;50.826;4.712;2022-12-07T03:55:08;3.30;;;2.67;;
12363;SDS011;6246;50.826;4.712;2022-12-07T03:57:35;2.93;;;2.73;;
12363;SDS011;6246;50.826;4.712;2022-12-07T04:00:03;2.90;;;2.70;;
12363;SDS011;6246;50.826;4.712;2022-12-07T04:02:29;2.77;;;2.57;;
12363;SDS011;6246;50.826;4.712;2022-12-07T04:04:55;3.27;;;3.03;;
12363;SDS011;6246;50.826;4.712;2022-12-07T04:07:22;3.73;;;3.17;;
12363;SDS011;6246;50.826;4.712;2022-12-07T04:09:48;3.30;;;3.00;;
12363;SDS011;6246;50.826;4.712;2022-12-07T04:12:14;3.23;;;3.03;;
12363;SDS011;6246;50.826;4.712;2022-12-07T04:14:40;3.10;;;2.80;;
12363;SDS011;6246;50.826;4.712;2022-12-07T04:17:06;3.07;;;2.77;;
12363;SDS011;6246;50.826;4.712;2022-12-07T04:19:33;2.93;;;2.73;;
12363;SDS011;6246;50.826;4.712;2022-12-07T04:22:02;2.90;;;2.70;;
12363;SDS011;6246;50.826;4.712;2022-12-07T04:24:28;3.37;;;3.07;;
12363;SDS011;6246;50.826;4.712;2022-12-07T04:26:54;3.30;;;3.00;;
12363;SDS011;6246;50.826;4.712;2022-12-07T04:29:21;3.07;;;2.77;;
12363;SDS011;6246;50.826;4.712;2022-12-07T04:31:47;3.33;;;3.03;;
12363;SDS011;6246;50.826;4.712;2022-12-07T04:34:13;2.77;;;2.57;;
12363;SDS011;6246;50.826;4.712;2022-12-07T04:36:40;3.43;;;2.97;;
12363;SDS011;6246;50.826;4.712;2022-12-07T04:39:06;3.30;;;3.00;;
12363;SDS011;6246;50.826;4.712;2022-12-07T04:41:33;3.70;;;2.67;;
12363;SDS011;6246;50.826;4.712;2022-12-07T04:44:00;3.20;;;2.77;;
12363;SDS011;6246;50.826;4.712;2022-12-07T04:46:27;3.07;;;2.87;;
12363;SDS011;6246;50.826;4.712;2022-12-07T04:48:53;3.47;;;3.17;;
12363;SDS011;6246;50.826;4.712;2022-12-07T04:51:21;3.33;;;3.03;;
12363;SDS011;6246;50.826;4.712;2022-12-07T04:53:47;3.40;;;3.10;;
12363;SDS011;6246;50.826;4.712;2022-12-07T04:56:14;2.57;;;2.37;;
12363;SDS011;6246;50.826;4.712;2022-12-07T04:58:40;3.40;;;3.10;;
12363;SDS011;6246;50.826;4.712;2022-12-07T05:01:06;3.30;;;3.00;;
12363;SDS011;6246;50.826;4.712;2022-12-07T05:03:32;2.73;;;2.53;;
12363;SDS011;6246;50.826;4.712;2022-12-07T05:05:58;3.17;;;2.87;;
12363;SDS011;6246;50.826;4.712;2022-12-07T05:08:24;3.30;;;3.00;;
12363;SDS011;6246;50.826;4.712;2022-12-07T05:10:50;3.17;;;2.80;;
12363;SDS011;6246;50.826;4.712;2022-12-07T05:13:16;3.23;;;3.03;;
12363;SDS011;6246;50.826;4.712;2022-12-07T05:15:42;3.00;;;2.77;;
12363;SDS011;6246;50.826;4.712;2022-12-07T05:18:09;3.20;;;3.00;;
12363;SDS011;6246;50.826;4.712;2022-12-07T05:20:37;3.37;;;3.00;;
12363;SDS011;6246;50.826;4.712;2022-12-07T05:23:03;3.27;;;2.97;;
12363;SDS011;6246;50.826;4.712;2022-12-07T05:25:29;3.53;;;3.23;;
12363;SDS011;6246;50.826;4.712;2022-12-07T05:27:55;3.50;;;3.20;;
12363;SDS011;6246;50.826;4.712;2022-12-07T05:30:22;3.03;;;2.83;;
12363;SDS011;6246;50.826;4.712;2022-12-07T05:32:48;3.13;;;2.93;;
12363;SDS011;6246;50.826;4.712;2022-12-07T05:35:15;3.10;;;2.80;;
12363;SDS011;6246;50.826;4.712;2022-12-07T05:37:41;3.00;;;2.80;;
12363;SDS011;6246;50.826;4.712;2022-12-07T05:40:07;3.20;;;2.90;;
12363;SDS011;6246;50.826;4.712;2022-12-07T05:42:33;3.00;;;2.80;;
12363;SDS011;6246;50.826;4.712;2022-12-07T05:44:59;3.70;;;3.30;;
12363;SDS011;6246;50.826;4.712;2022-12-07T05:47:25;3.00;;;2.80;;
12363;SDS011;6246;50.826;4.712;2022-12-07T05:49:51;3.10;;;2.80;;
12363;SDS011;6246;50.826;4.712;2022-12-07T05:52:17;2.87;;;2.67;;
12363;SDS011;6246;50.826;4.712;2022-12-07T05:54:43;3.00;;;2.80;;
12363;SDS011;6246;50.826;4.712;2022-12-07T05:57:09;3.30;;;3.10;;
12363;SDS011;6246;50.826;4.712;2022-12-07T05:59:35;2.93;;;2.70;;
12363;SDS011;6246;50.826;4.712;2022-12-07T06:02:04;2.93;;;2.73;;
12363;SDS011;6246;50.826;4.712;2022-12-07T06:04:31;2.80;;;2.60;;
12363;SDS011;6246;50.826;4.712;2022-12-07T06:06:58;3.20;;;2.90;;
12363;SDS011;6246;50.826;4.712;2022-12-07T06:09:24;2.70;;;2.50;;
12363;SDS011;6246;50.826;4.712;2022-12-07T06:11:51;3.00;;;2.70;;
12363;SDS011;6246;50.826;4.712;2022-12-07T06:14:35;3.73;;;2.87;;
12363;SDS011;6246;50.826;4.712;2022-12-07T06:17:02;2.90;;;2.70;;
12363;SDS011;6246;50.826;4.712;2022-12-07T06:19:28;2.90;;;2.70;;
12363;SDS011;6246;50.826;4.712;2022-12-07T06:21:54;3.17;;;2.97;;
12363;SDS011;6246;50.826;4.712;2022-12-07T06:24:20;2.83;;;2.63;;
12363;SDS011;6246;50.826;4.712;2022-12-07T06:26:46;2.77;;;2.57;;
12363;SDS011;6246;50.826;4.712;2022-12-07T06:29:12;3.00;;;2.80;;
12363;SDS011;6246;50.826;4.712;2022-12-07T06:31:38;3.23;;;2.90;;
12363;SDS011;6246;50.826;4.712;2022-12-07T06:34:15;2.83;;;2.63;;
12363;SDS011;6246;50.826;4.712;2022-12-07T06:36:41;2.90;;;2.70;;
12363;SDS011;6246;50.826;4.712;2022-12-07T06:39:07;3.00;;;2.50;;
12363;SDS011;6246;50.826;4.712;2022-12-07T06:41:34;3.13;;;2.63;;
12363;SDS011;6246;50.826;4.712;2022-12-07T06:44:01;3.13;;;2.87;;
12363;SDS011;6246;50.826;4.712;2022-12-07T06:46:27;2.60;;;2.40;;
12363;SDS011;6246;50.826;4.712;2022-12-07T06:48:53;2.70;;;2.50;;
12363;SDS011;6246;50.826;4.712;2022-12-07T06:51:19;2.83;;;2.47;;
12363;SDS011;6246;50.826;4.712;2022-12-07T06:53:45;3.20;;;2.90;;
12363;SDS011;6246;50.826;4.712;2022-12-07T06:56:11;3.30;;;3.00;;
12363;SDS011;6246;50.826;4.712;2022-12-07T06:58:37;2.70;;;2.50;;
12363;SDS011;6246;50.826;4.712;2022-12-07T07:01:07;2.80;;;2.60;;
12363;SDS011;6246;50.826;4.712;2022-12-07T07:03:33;3.07;;;2.77;;
12363;SDS011;6246;50.826;4.712;2022-12-07T07:05:59;3.00;;;2.80;;
12363;SDS011;6246;50.826;4.712;2022-12-07T07:08:25;2.53;;;2.33;;
12363;SDS011;6246;50.826;4.712;2022-12-07T07:10:51;3.03;;;2.83;;
12363;SDS011;6246;50.826;4.712;2022-12-07T07:13:17;3.63;;;2.83;;
12363;SDS011;6246;50.826;4.712;2022-12-07T07:15:43;2.97;;;2.77;;
12363;SDS011;6246;50.826;4.712;2022-12-07T07:18:09;2.57;;;2.40;;
12363;SDS011;6246;50.826;4.712;2022-12-07T07:20:36;3.10;;;2.80;;
12363;SDS011;6246;50.826;4.712;2022-12-07T07:23:02;3.23;;;2.90;;
12363;SDS011;6246;50.826;4.712;2022-12-07T07:25:28;2.90;;;2.70;;
12363;SDS011;6246;50.826;4.712;2022-12-07T07:27:54;3.00;;;2.80;;
12363;SDS011;6246;50.826;4.712;2022-12-07T07:30:20;3.10;;;2.87;;
12363;SDS011;6246;50.826;4.712;2022-12-07T07:32:46;2.70;;;2.50;;
12363;SDS011;6246;50.826;4.712;2022-12-07T07:35:12;2.70;;;2.50;;
12363;SDS011;6246;50.826;4.712;2022-12-07T07:37:39;3.10;;;2.60;;
12363;SDS011;6246;50.826;4.712;2022-12-07T07:40:05;2.70;;;2.50;;
12363;SDS011;6246;50.826;4.712;2022-12-07T07:42:32;3.20;;;2.90;;
12363;SDS011;6246;50.826;4.712;2022-12-07T07:44:58;2.90;;;2.60;;
12363;SDS011;6246;50.826;4.712;2022-12-07T07:47:24;3.17;;;2.87;;
12363;SDS011;6246;50.826;4.712;2022-12-07T07:49:50;3.37;;;3.07;;
12363;SDS011;6246;50.826;4.712;2022-12-07T07:52:16;2.70;;;2.50;;
12363;SDS011;6246;50.826;4.712;2022-12-07T07:54:42;3.40;;;3.10;;
12363;SDS011;6246;50.826;4.712;2022-12-07T07:57:08;2.77;;;2.57;;
12363;SDS011;6246;50.826;4.712;2022-12-07T07:59:34;2.70;;;2.50;;
12363;SDS011;6246;50.826;4.712;2022-12-07T08:02:00;2.97;;;2.70;;
12363;SDS011;6246;50.826;4.712;2022-12-07T08:04:26;2.87;;;2.67;;
12363;SDS011;6246;50.826;4.712;2022-12-07T08:06:52;2.80;;;2.60;;
12363;SDS011;6246;50.826;4.712;2022-12-07T08:09:18;3.30;;;3.00;;
12363;SDS011;6246;50.826;4.712;2022-12-07T08:11:44;2.67;;;2.47;;
12363;SDS011;6246;50.826;4.712;2022-12-07T08:14:10;3.00;;;2.70;;
12363;SDS011;6246;50.826;4.712;2022-12-07T08:16:37;2.57;;;2.30;;
12363;SDS011;6246;50.826;4.712;2022-12-07T08:19:04;2.40;;;2.20;;
12363;SDS011;6246;50.826;4.712;2022-12-07T08:21:30;2.83;;;2.63;;
12363;SDS011;6246;50.826;4.712;2022-12-07T08:23:57;3.10;;;2.80;;
12363;SDS011;6246;50.826;4.712;2022-12-07T08:26:23;2.90;;;2.60;;
12363;SDS011;6246;50.826;4.712;2022-12-07T08:28:49;2.60;;;2.40;;
12363;SDS011;6246;50.826;4.712;2022-12-07T08:31:15;3.17;;;2.87;;
12363;SDS011;6246;50.826;4.712;2022-12-07T08:33:44;2.20;;;2.10;;
12363;SDS011;6246;50.826;4.712;2022-12-07T08:36:10;2.90;;;2.60;;
12363;SDS011;6246;50.826;4.712;2022-12-07T08:38:38;3.10;;;2.77;;
12363;SDS011;6246;50.826;4.712;2022-12-07T08:41:04;2.90;;;2.70;;
12363;SDS011;6246;50.826;4.712;2022-12-07T08:43:30;3.13;;;2.90;;
12363;SDS011;6246;50.826;4.712;2022-12-07T08:48:23;2.50;;;2.30;;
12363;SDS011;6246;50.826;4.712;2022-12-07T08:50:49;3.13;;;2.83;;
12363;SDS011;6246;50.826;4.712;2022-12-07T08:53:15;2.80;;;2.60;;
12363;SDS011;6246;50.826;4.712;2022-12-07T08:55:41;3.03;;;2.73;;
12363;SDS011;6246;50.826;4.712;2022-12-07T08:58:09;2.53;;;2.33;;
12363;SDS011;6246;50.826;4.712;2022-12-07T09:00:35;2.53;;;2.33;;
12363;SDS011;6246;50.826;4.712;2022-12-07T09:03:01;2.70;;;2.50;;
12363;SDS011;6246;50.826;4.712;2022-12-07T09:05:27;3.43;;;3.13;;
12363;SDS011;6246;50.826;4.712;2022-12-07T09:07:54;2.90;;;2.53;;
12363;SDS011;6246;50.826;4.712;2022-12-07T09:10:22;3.13;;;2.70;;
12363;SDS011;6246;50.826;4.712;2022-12-07T09:12:48;3.07;;;2.80;;
12363;SDS011;6246;50.826;4.712;2022-12-07T09:15:14;2.50;;;2.30;;
12363;SDS011;6246;50.826;4.712;2022-12-07T09:17:40;3.00;;;2.70;;
12363;SDS011;6246;50.826;4.712;2022-12-07T09:20:06;2.40;;;2.20;;
12363;SDS011;6246;50.826;4.712;2022-12-07T09:22:33;3.40;;;2.67;;
12363;SDS011;6246;50.826;4.712;2022-12-07T09:24:59;2.47;;;2.27;;
12363;SDS011;6246;50.826;4.712;2022-12-07T09:27:26;2.50;;;2.30;;
12363;SDS011;6246;50.826;4.712;2022-12-07T09:29:52;3.00;;;2.70;;
12363;SDS011;6246;50.826;4.712;2022-12-07T09:32:18;2.70;;;2.50;;
12363;SDS011;6246;50.826;4.712;2022-12-07T09:34:44;2.40;;;2.20;;
12363;SDS011;6246;50.826;4.712;2022-12-07T09:37:10;2.20;;;2.00;;
12363;SDS011;6246;50.826;4.712;2022-12-07T09:39:39;2.10;;;2.00;;
12363;SDS011;6246;50.826;4.712;2022-12-07T09:42:06;2.13;;;1.97;;
12363;SDS011;6246;50.826;4.712;2022-12-07T09:44:33;2.53;;;2.20;;
12363;SDS011;6246;50.826;4.712;2022-12-07T09:46:59;2.87;;;2.50;;
12363;SDS011;6246;50.826;4.712;2022-12-07T09:49:27;2.87;;;2.10;;
12363;SDS011;6246;50.826;4.712;2022-12-07T09:52:03;2.40;;;2.20;;
12363;SDS011;6246;50.826;4.712;2022-12-07T09:54:44;2.30;;;2.20;;
12363;SDS011;6246;50.826;4.712;2022-12-07T09:57:11;2.83;;;2.23;;
12363;SDS011;6246;50.826;4.712;2022-12-07T09:59:38;2.07;;;1.93;;
12363;SDS011;6246;50.826;4.712;2022-12-07T10:05:09;2.60;;;2.40;;
12363;SDS011;6246;50.826;4.712;2022-12-07T10:07:36;2.73;;;2.47;;
12363;SDS011;6246;50.826;4.712;2022-12-07T10:10:06;2.43;;;2.23;;
12363;SDS011;6246;50.826;4.712;2022-12-07T10:15:19;1.80;;;1.70;;
12363;SDS011;6246;50.826;4.712;2022-12-07T10:17:49;2.20;;;1.93;;
12363;SDS011;6246;50.826;4.712;2022-12-07T10:22:58;2.17;;;2.07;;
12363;SDS011;6246;50.826;4.712;2022-12-07T10:25:29;2.77;;;2.47;;
12363;SDS011;6246;50.826;4.712;2022-12-07T10:28:10;2.77;;;2.27;;
12363;SDS011;6246;50.826;4.712;2022-12-07T10:33:28;2.40;;;2.13;;
12363;SDS011;6246;50.826;4.712;2022-12-07T10:35:55;2.60;;;2.40;;
12363;SDS011;6246;50.826;4.712;2022-12-07T10:38:21;2.20;;;2.10;;
12363;SDS011;6246;50.826;4.712;2022-12-07T10:40:47;2.10;;;2.00;;
12363;SDS011;6246;50.826;4.712;2022-12-07T10:51:04;2.40;;;2.20;;
12363;SDS011;6246;50.826;4.712;2022-12-07T10:58:33;1.90;;;1.80;;
12363;SDS011;6246;50.826;4.712;2022-12-07T11:01:23;2.33;;;2.13;;
12363;SDS011;6246;50.826;4.712;2022-12-07T11:11:44;3.23;;;2.27;;
12363;SDS011;6246;50.826;4.712;2022-12-07T11:14:25;2.17;;;1.90;;
12363;SDS011;6246;50.826;4.712;2022-12-07T11:17:14;2.00;;;1.90;;
12363;SDS011;6246;50.826;4.712;2022-12-07T11:19:47;2.03;;;1.83;;
12363;SDS011;6246;50.826;4.712;2022-12-07T11:27:24;1.70;;;1.60;;
12363;SDS011;6246;50.826;4.712;2022-12-07T11:37:18;2.03;;;1.93;;
12363;SDS011;6246;50.826;4.712;2022-12-07T11:39:47;2.20;;;2.00;;
12363;SDS011;6246;50.826;4.712;2022-12-07T11:42:18;1.87;;;1.70;;
12363;SDS011;6246;50.826;4.712;2022-12-07T11:47:29;2.30;;;2.10;;
12363;SDS011;6246;50.826;4.712;2022-12-07T11:50:01;1.97;;;1.77;;
12363;SDS011;6246;50.826;4.712;2022-12-07T11:55:21;1.80;;;1.70;;
12363;SDS011;6246;50.826;4.712;2022-12-07T11:57:51;2.00;;;1.80;;
12363;SDS011;6246;50.826;4.712;2022-12-07T12:00:20;1.93;;;1.83;;
12363;SDS011;6246;50.826;4.712;2022-12-07T12:02:49;2.17;;;1.90;;
12363;SDS011;6246;50.826;4.712;2022-12-07T12:07:43;2.03;;;1.40;;
12363;SDS011;6246;50.826;4.712;2022-12-07T12:21:03;2.17;;;1.83;;
12363;SDS011;6246;50.826;4.712;2022-12-07T12:23:35;1.93;;;1.70;;
12363;SDS011;6246;50.826;4.712;2022-12-07T12:26:03;1.70;;;1.60;;
12363;SDS011;6246;50.826;4.712;2022-12-07T12:31:07;2.07;;;1.30;;
12363;SDS011;6246;50.826;4.712;2022-12-07T12:33:35;1.90;;;1.70;;
12363;SDS011;6246;50.826;4.712;2022-12-07T12:44:08;1.77;;;1.60;;
12363;SDS011;6246;50.826;4.712;2022-12-07T12:46:58;1.50;;;1.40;;
12363;SDS011;6246;50.826;4.712;2022-12-07T13:01:50;1.63;;;1.50;;
12363;SDS011;6246;50.826;4.712;2022-12-07T13:04:27;1.50;;;1.40;;
12363;SDS011;6246;50.826;4.712;2022-12-07T13:06:54;1.80;;;1.70;;
12363;SDS011;6246;50.826;4.712;2022-12-07T13:09:21;1.40;;;1.30;;
12363;SDS011;6246;50.826;4.712;2022-12-07T13:11:48;1.33;;;1.23;;
12363;SDS011;6246;50.826;4.712;2022-12-07T13:16:59;2.00;;;1.50;;
12363;SDS011;6246;50.826;4.712;2022-12-07T13:22:48;1.40;;;1.30;;
12363;SDS011;6246;50.826;4.712;2022-12-07T13:27:41;1.40;;;1.30;;
12363;SDS011;6246;50.826;4.712;2022-12-07T13:30:11;2.53;;;1.70;;
12363;SDS011;6246;50.826;4.712;2022-12-07T13:32:39;1.50;;;1.40;;
12363;SDS011;6246;50.826;4.712;2022-12-07T13:35:50;1.50;;;1.40;;
12363;SDS011;6246;50.826;4.712;2022-12-07T13:37:51;1.60;;;1.50;;
12363;SDS011;6246;50.826;4.712;2022-12-07T13:40:18;1.93;;;1.60;;
12363;SDS011;6246;50.826;4.712;2022-12-07T13:42:45;2.53;;;1.30;;
12363;SDS011;6246;50.826;4.712;2022-12-07T13:45:20;1.33;;;1.23;;
12363;SDS011;6246;50.826;4.712;2022-12-07T13:47:53;1.50;;;1.40;;
12363;SDS011;6246;50.826;4.712;2022-12-07T13:50:23;1.57;;;1.47;;
12363;SDS011;6246;50.826;4.712;2022-12-07T13:52:50;1.37;;;1.27;;
12363;SDS011;6246;50.826;4.712;2022-12-07T13:55:16;2.10;;;1.40;;
12363;SDS011;6246;50.826;4.712;2022-12-07T13:57:42;2.83;;;1.47;;
12363;SDS011;6246;50.826;4.712;2022-12-07T14:00:16;1.20;;;1.10;;
12363;SDS011;6246;50.826;4.712;2022-12-07T14:05:33;1.97;;;1.30;;
12363;SDS011;6246;50.826;4.712;2022-12-07T14:08:01;1.50;;;1.40;;
12363;SDS011;6246;50.826;4.712;2022-12-07T14:10:28;1.60;;;1.50;;
12363;SDS011;6246;50.826;4.712;2022-12-07T14:12:55;1.17;;;1.13;;
12363;SDS011;6246;50.826;4.712;2022-12-07T14:15:23;1.67;;;1.40;;
12363;SDS011;6246;50.826;4.712;2022-12-07T14:17:50;1.30;;;1.20;;
12363;SDS011;6246;50.826;4.712;2022-12-07T14:20:35;1.50;;;1.40;;
12363;SDS011;6246;50.826;4.712;2022-12-07T14:23:02;1.50;;;1.40;;
12363;SDS011;6246;50.826;4.712;2022-12-07T14:25:45;1.77;;;1.37;;
12363;SDS011;6246;50.826;4.712;2022-12-07T14:28:24;1.30;;;1.20;;
12363;SDS011;6246;50.826;4.712;2022-12-07T14:30:51;2.50;;;1.43;;
12363;SDS011;6246;50.826;4.712;2022-12-07T14:33:17;1.60;;;1.50;;
12363;SDS011;6246;50.826;4.712;2022-12-07T14:35:43;1.40;;;1.23;;
12363;SDS011;6246;50.826;4.712;2022-12-07T14:38:09;1.40;;;1.30;;
12363;SDS011;6246;50.826;4.712;2022-12-07T14:40:35;1.00;;;0.90;;
12363;SDS011;6246;50.826;4.712;2022-12-07T14:43:11;0.90;;;0.90;;
12363;SDS011;6246;50.826;4.712;2022-12-07T14:45:38;0.97;;;0.97;;
12363;SDS011;6246;50.826;4.712;2022-12-07T14:48:05;1.77;;;1.33;;
12363;SDS011;6246;50.826;4.712;2022-12-07T14:50:33;1.27;;;1.17;;
12363;SDS011;6246;50.826;4.712;2022-12-07T14:53:02;0.93;;;0.93;;
12363;SDS011;6246;50.826;4.712;2022-12-07T14:55:30;2.27;;;1.30;;
12363;SDS011;6246;50.826;4.712;2022-12-07T14:57:57;1.27;;;1.27;;
12363;SDS011;6246;50.826;4.712;2022-12-07T15:00:24;2.00;;;1.00;;
12363;SDS011;6246;50.826;4.712;2022-12-07T15:02:51;1.63;;;1.30;;
12363;SDS011;6246;50.826;4.712;2022-12-07T15:05:17;1.50;;;1.40;;
12363;SDS011;6246;50.826;4.712;2022-12-07T15:07:44;1.00;;;0.90;;
12363;SDS011;6246;50.826;4.712;2022-12-07T15:10:15;2.00;;;1.33;;
12363;SDS011;6246;50.826;4.712;2022-12-07T15:12:42;1.93;;;1.50;;
12363;SDS011;6246;50.826;4.712;2022-12-07T15:15:08;1.20;;;1.03;;
12363;SDS011;6246;50.826;4.712;2022-12-07T15:17:34;1.63;;;1.30;;
12363;SDS011;6246;50.826;4.712;2022-12-07T15:20:01;1.47;;;1.37;;
12363;SDS011;6246;50.826;4.712;2022-12-07T15:22:27;1.17;;;1.10;;
12363;SDS011;6246;50.826;4.712;2022-12-07T15:24:54;1.57;;;1.47;;
12363;SDS011;6246;50.826;4.712;2022-12-07T15:27:20;1.43;;;1.33;;
12363;SDS011;6246;50.826;4.712;2022-12-07T15:29:46;1.67;;;1.20;;
12363;SDS011;6246;50.826;4.712;2022-12-07T15:32:12;1.47;;;1.37;;
12363;SDS011;6246;50.826;4.712;2022-12-07T15:34:38;1.73;;;1.17;;
12363;SDS011;6246;50.826;4.712;2022-12-07T15:37:05;1.40;;;1.30;;
12363;SDS011;6246;50.826;4.712;2022-12-07T15:39:31;1.50;;;1.40;;
12363;SDS011;6246;50.826;4.712;2022-12-07T15:41:57;2.17;;;1.30;;
12363;SDS011;6246;50.826;4.712;2022-12-07T15:44:23;1.23;;;1.13;;
12363;SDS011;6246;50.826;4.712;2022-12-07T15:47:08;1.57;;;1.43;;
12363;SDS011;6246;50.826;4.712;2022-12-07T15:49:34;1.40;;;1.30;;
12363;SDS011;6246;50.826;4.712;2022-12-07T15:52:00;1.40;;;1.20;;
12363;SDS011;6246;50.826;4.712;2022-12-07T15:54:27;1.37;;;1.27;;
12363;SDS011;6246;50.826;4.712;2022-12-07T15:56:53;1.63;;;1.50;;
12363;SDS011;6246;50.826;4.712;2022-12-07T15:59:19;1.03;;;1.00;;
12363;SDS011;6246;50.826;4.712;2022-12-07T16:01:45;1.50;;;1.40;;
12363;SDS011;6246;50.826;4.712;2022-12-07T16:04:11;1.20;;;1.10;;
12363;SDS011;6246;50.826;4.712;2022-12-07T16:06:38;2.27;;;1.53;;
12363;SDS011;6246;50.826;4.712;2022-12-07T16:09:04;1.53;;;1.43;;
12363;SDS011;6246;50.826;4.712;2022-12-07T16:11:30;1.70;;;1.60;;
12363;SDS011;6246;50.826;4.712;2022-12-07T16:13:57;1.47;;;1.33;;
12363;SDS011;6246;50.826;4.712;2022-12-07T16:16:23;2.57;;;1.50;;
12363;SDS011;6246;50.826;4.712;2022-12-07T16:18:49;1.47;;;1.37;;
12363;SDS011;6246;50.826;4.712;2022-12-07T16:21:15;1.87;;;1.57;;
12363;SDS011;6246;50.826;4.712;2022-12-07T16:23:41;1.17;;;1.17;;
12363;SDS011;6246;50.826;4.712;2022-12-07T16:26:08;1.20;;;1.10;;
12363;SDS011;6246;50.826;4.712;2022-12-07T16:28:35;1.70;;;1.60;;
12363;SDS011;6246;50.826;4.712;2022-12-07T16:31:04;1.50;;;1.10;;
12363;SDS011;6246;50.826;4.712;2022-12-07T16:33:32;2.33;;;1.37;;
12363;SDS011;6246;50.826;4.712;2022-12-07T16:35:58;1.73;;;1.63;;
12363;SDS011;6246;50.826;4.712;2022-12-07T16:38:24;1.60;;;1.50;;
12363;SDS011;6246;50.826;4.712;2022-12-07T16:40:51;1.43;;;1.33;;
12363;SDS011;6246;50.826;4.712;2022-12-07T16:43:17;1.67;;;1.40;;
12363;SDS011;6246;50.826;4.712;2022-12-07T16:45:43;2.10;;;1.90;;
12363;SDS011;6246;50.826;4.712;2022-12-07T16:48:09;1.97;;;1.57;;
12363;SDS011;6246;50.826;4.712;2022-12-07T16:50:36;1.77;;;1.67;;
12363;SDS011;6246;50.826;4.712;2022-12-07T16:53:04;1.60;;;1.50;;
12363;SDS011;6246;50.826;4.712;2022-12-07T16:55:30;1.70;;;1.60;;
12363;SDS011;6246;50.826;4.712;2022-12-07T16:57:58;1.70;;;1.60;;
12363;SDS011;6246;50.826;4.712;2022-12-07T17:00:24;1.20;;;1.17;;
12363;SDS011;6246;50.826;4.712;2022-12-07T17:02:50;2.33;;;1.60;;
12363;SDS011;6246;50.826;4.712;2022-12-07T17:05:16;1.80;;;1.60;;
12363;SDS011;6246;50.826;4.712;2022-12-07T17:07:42;1.80;;;1.70;;
12363;SDS011;6246;50.826;4.712;2022-12-07T17:10:08;1.80;;;1.63;;